サンホセ/フアン・サンタ・マリア の空港の天気 - METARとTAF

フアン・サンタ・マリア国際空港 ( MROC / SJO ) - コスタリカ サンホセ
飛行場実況気象(Metar)
観測時間01/19 05:00 CST (01/19 11:00 UTC)
風向・風速東 5m/s
視程10km以上
天気現象
なし
気温19℃
湿度73%
気圧1016hPa
METARMROC 191100Z 08009KT 050V110 CAVOK 19/14 A2999 NOSIG
過去の天気等 Google飛行場航空写真 Wunderground天気予報

過去48時間のMETAR

飛行場予報(TAF)
発表時間: 1/18 23:00 CST (1/19 05:00 UTC)
予報対象時間: 19日0時 CST ~ 20日0時 CST
風向・風速東 8m/s
視程10km以上
なし
19日0時 CST ~ 19日14時 CST に一時的に
風向・風速東 8m/s 瞬間風速 13m/s
MROC 190500Z 1906/2006 09015KT CAVOK TX29/1919Z TN19/1911Z
TEMPO 1906/1920 09015G25KT